createdAt,value
2022-11-06T00:01:12.399Z,33.06
2022-11-06T00:03:40.667Z,33.43
2022-11-06T00:06:34.520Z,33.02
2022-11-06T00:09:05.725Z,33.43
2022-11-06T00:11:33.515Z,33.56
2022-11-06T00:14:02.388Z,33.25
2022-11-06T00:16:30.107Z,33.58
2022-11-06T00:19:01.153Z,33.38
2022-11-06T00:21:30.842Z,33.39
2022-11-06T00:24:01.388Z,33.08
2022-11-06T00:26:30.683Z,33.22
2022-11-06T00:28:59.313Z,33.21
2022-11-06T00:31:30.197Z,32.99
2022-11-06T00:33:59.982Z,32.96
2022-11-06T00:36:30.510Z,32.82
2022-11-06T00:38:59.313Z,33.02
2022-11-06T00:41:27.369Z,32.95
2022-11-06T00:43:58.266Z,32.56
2022-11-06T00:46:27.053Z,32.84
2022-11-06T00:48:55.644Z,33.13
2022-11-06T00:51:26.665Z,33.08
2022-11-06T00:54:00.133Z,32.74
2022-11-06T00:56:28.767Z,32.43
2022-11-06T00:58:58.920Z,33.01
2022-11-06T01:01:29.867Z,32.95
2022-11-06T01:04:06.717Z,33.07
2022-11-06T01:06:37.176Z,33.64
2022-11-06T01:09:06.715Z,33.14
2022-11-06T01:12:11.000Z,32.97
2022-11-06T01:14:29.644Z,33.02
2022-11-06T01:16:57.618Z,33.26
2022-11-06T01:19:25.656Z,33.43
2022-11-06T01:21:54.370Z,33.16
2022-11-06T01:24:25.126Z,32.96
2022-11-06T01:27:24.368Z,32.78
2022-11-06T01:29:41.320Z,33.01
2022-11-06T01:32:09.496Z,32.97
2022-11-06T01:34:37.121Z,33.85
2022-11-06T01:37:05.222Z,34.65
2022-11-06T01:39:33.304Z,32.72
2022-11-06T01:42:01.182Z,32.88
2022-11-06T01:44:41.370Z,32.97
2022-11-06T01:47:28.645Z,33.35
2022-11-06T01:50:00.616Z,33.06
2022-11-06T01:52:30.963Z,33.31
2022-11-06T01:55:14.230Z,33.22
2022-11-06T01:57:42.737Z,32.70
2022-11-06T02:00:11.378Z,32.74
2022-11-06T02:02:40.098Z,33.04
2022-11-06T02:05:08.543Z,33.53
2022-11-06T02:07:37.595Z,33.63
2022-11-06T02:10:07.278Z,33.60
2022-11-06T02:12:40.784Z,33.44
2022-11-06T02:15:31.092Z,33.78
2022-11-06T02:18:19.412Z,33.98
2022-11-06T02:21:12.193Z,33.92
2022-11-06T02:24:07.980Z,34.19
2022-11-06T02:26:54.564Z,34.35
2022-11-06T02:29:32.822Z,33.53
2022-11-06T02:32:07.040Z,33.38
2022-11-06T02:34:38.278Z,33.58
2022-11-06T02:37:14.383Z,33.46
2022-11-06T02:39:45.020Z,33.73
2022-11-06T02:42:16.834Z,33.62
2022-11-06T02:44:46.519Z,33.82
2022-11-06T02:47:15.518Z,33.64
2022-11-06T02:50:04.787Z,33.63
2022-11-06T02:52:37.970Z,33.21
2022-11-06T02:55:25.010Z,33.36
2022-11-06T02:57:58.240Z,33.68
2022-11-06T03:00:27.820Z,33.58
2022-11-06T03:03:06.362Z,33.87
2022-11-06T03:05:39.356Z,33.89
2022-11-06T03:08:39.796Z,33.88
2022-11-06T03:11:22.902Z,34.42
2022-11-06T03:13:59.077Z,34.28
2022-11-06T03:16:47.961Z,34.33
2022-11-06T03:19:22.573Z,34.24
2022-11-06T03:22:05.480Z,34.33
2022-11-06T03:24:48.831Z,34.09
2022-11-06T03:27:39.097Z,34.21
2022-11-06T03:30:13.853Z,34.26
2022-11-06T03:32:52.321Z,34.53
2022-11-06T03:35:22.080Z,34.25
2022-11-06T03:38:11.136Z,34.68
2022-11-06T03:40:45.052Z,34.44
2022-11-06T03:43:17.356Z,34.75
2022-11-06T03:45:49.658Z,34.96
2022-11-06T03:48:42.437Z,34.94
2022-11-06T03:51:40.801Z,34.55
2022-11-06T03:54:17.073Z,34.74
2022-11-06T03:56:53.705Z,34.58
2022-11-06T03:59:25.452Z,34.67
2022-11-06T04:01:56.846Z,34.68
2022-11-06T04:04:26.722Z,34.17
2022-11-06T04:07:02.046Z,34.53
2022-11-06T04:09:52.562Z,34.74
2022-11-06T04:12:42.850Z,34.88
2022-11-06T04:15:14.950Z,34.60
2022-11-06T04:17:42.646Z,34.57
2022-11-06T04:20:34.488Z,34.23
2022-11-06T04:23:14.464Z,34.18
2022-11-06T04:26:34.427Z,34.46
2022-11-06T04:29:43.841Z,34.16
2022-11-06T04:32:38.037Z,34.22
2022-11-06T04:35:09.413Z,34.63
2022-11-06T04:37:49.003Z,34.69
2022-11-06T04:40:32.427Z,34.65
2022-11-06T04:43:07.532Z,34.77
2022-11-06T04:45:40.127Z,34.61
2022-11-06T04:48:09.060Z,34.62
2022-11-06T04:50:50.682Z,34.55
2022-11-06T04:53:20.685Z,34.33
2022-11-06T04:55:52.699Z,34.72
2022-11-06T04:58:20.463Z,35.02
2022-11-06T05:00:50.830Z,35.12
2022-11-06T05:03:19.503Z,35.22
2022-11-06T05:05:47.305Z,35.19
2022-11-06T05:08:17.033Z,35.05
2022-11-06T05:10:45.330Z,35.33
2022-11-06T05:13:14.504Z,34.77
2022-11-06T05:15:42.518Z,34.96
2022-11-06T05:18:10.986Z,34.83
2022-11-06T05:20:38.968Z,34.76
2022-11-06T05:23:06.687Z,35.04
2022-11-06T05:25:36.961Z,35.16
2022-11-06T05:28:07.274Z,34.99
2022-11-06T05:30:36.784Z,34.68
2022-11-06T05:33:04.497Z,34.95
2022-11-06T05:35:33.006Z,35.12
2022-11-06T05:38:02.902Z,35.01
2022-11-06T05:40:31.026Z,35.22
2022-11-06T05:42:58.877Z,35.41
2022-11-06T05:45:26.478Z,35.31
2022-11-06T05:47:54.337Z,34.91
2022-11-06T05:50:22.456Z,35.11
2022-11-06T05:52:50.568Z,34.98
2022-11-06T05:55:18.562Z,34.93
2022-11-06T05:57:46.302Z,34.80
2022-11-06T06:00:14.420Z,35.44
2022-11-06T06:02:43.588Z,34.52
2022-11-06T06:05:11.521Z,34.46
2022-11-06T06:07:39.253Z,34.64
2022-11-06T06:10:09.021Z,34.44
2022-11-06T06:12:36.720Z,33.93
2022-11-06T06:15:06.407Z,33.66
2022-11-06T06:17:35.306Z,34.03
2022-11-06T06:20:03.457Z,33.78
2022-11-06T06:22:31.131Z,33.90
2022-11-06T06:24:58.858Z,33.86
2022-11-06T06:27:27.769Z,33.47
2022-11-06T06:29:55.432Z,33.16
2022-11-06T06:32:23.390Z,33.00
2022-11-06T06:34:51.145Z,33.19
2022-11-06T06:37:20.230Z,33.14
2022-11-06T06:39:48.189Z,33.21
2022-11-06T06:42:15.898Z,33.19
2022-11-06T06:44:43.499Z,33.16
2022-11-06T06:47:11.167Z,33.20
2022-11-06T06:49:38.928Z,33.59
2022-11-06T06:52:06.702Z,33.98
2022-11-06T06:54:34.478Z,33.76
2022-11-06T06:57:02.071Z,33.82
2022-11-06T06:59:30.039Z,33.82
2022-11-06T07:01:58.157Z,34.23
2022-11-06T07:04:26.154Z,34.19
2022-11-06T07:06:55.084Z,34.50
2022-11-06T07:09:24.290Z,34.37
2022-11-06T07:11:52.063Z,34.04
2022-11-06T07:14:19.699Z,34.17
2022-11-06T07:16:51.141Z,34.05
2022-11-06T07:19:21.875Z,34.17
2022-11-06T07:21:53.823Z,35.03
2022-11-06T07:24:21.594Z,34.67
2022-11-06T07:26:50.074Z,34.16
2022-11-06T07:29:17.792Z,33.82
2022-11-06T07:31:45.630Z,33.93
2022-11-06T07:34:14.121Z,33.90
2022-11-06T07:36:42.079Z,33.71
2022-11-06T07:39:09.886Z,34.04
2022-11-06T07:41:38.012Z,33.54
2022-11-06T07:44:06.229Z,33.67
2022-11-06T07:46:34.196Z,40.81
2022-11-06T07:49:02.043Z,37.28
2022-11-06T07:51:29.897Z,36.08
2022-11-06T07:53:57.618Z,34.96
2022-11-06T07:56:25.643Z,35.89
2022-11-06T07:58:53.446Z,34.66
2022-11-06T08:01:21.282Z,34.60
2022-11-06T08:03:49.147Z,36.07
2022-11-06T08:06:17.655Z,39.85
2022-11-06T08:08:45.386Z,35.76
2022-11-06T08:11:16.235Z,35.58
2022-11-06T08:13:44.299Z,34.96
2022-11-06T08:16:15.172Z,34.74
2022-11-06T08:18:43.142Z,34.37
2022-11-06T08:21:10.862Z,34.08
2022-11-06T08:23:38.619Z,33.93
2022-11-06T08:26:07.473Z,34.22
2022-11-06T08:28:35.789Z,33.98
2022-11-06T08:31:05.941Z,34.45
2022-11-06T08:33:37.211Z,34.32
2022-11-06T08:36:07.165Z,34.07
2022-11-06T08:38:36.927Z,34.38
2022-11-06T08:41:09.837Z,34.14
2022-11-06T08:43:38.274Z,34.61
2022-11-06T08:46:07.432Z,34.06
2022-11-06T08:48:35.401Z,34.01
2022-11-06T08:51:06.228Z,33.75
2022-11-06T08:53:34.426Z,34.00
2022-11-06T08:56:05.807Z,33.60
2022-11-06T08:58:34.669Z,34.57
2022-11-06T09:01:02.621Z,33.80
2022-11-06T09:03:30.328Z,37.96
2022-11-06T09:05:58.183Z,38.83
2022-11-06T09:08:26.144Z,38.95
2022-11-06T09:10:58.470Z,38.43
2022-11-06T09:13:27.488Z,39.28
2022-11-06T09:15:55.235Z,39.44
2022-11-06T09:18:22.885Z,36.82
2022-11-06T09:20:56.292Z,36.99
2022-11-06T09:23:25.317Z,36.86
2022-11-06T09:25:52.992Z,37.17
2022-11-06T09:28:21.098Z,37.30
2022-11-06T09:30:48.938Z,37.55
2022-11-06T09:33:17.733Z,37.45
2022-11-06T09:35:45.761Z,38.38
2022-11-06T09:38:15.780Z,37.59
2022-11-06T09:41:00.370Z,36.89
2022-11-06T09:44:06.668Z,35.94
2022-11-06T09:46:47.528Z,36.65
2022-11-06T09:49:30.759Z,36.79
2022-11-06T09:52:02.354Z,36.92
2022-11-06T09:54:43.060Z,35.89
2022-11-06T09:57:23.738Z,35.40
2022-11-06T09:59:51.977Z,36.27
2022-11-06T10:02:32.147Z,35.92
2022-11-06T10:05:10.912Z,35.67
2022-11-06T10:07:41.524Z,36.02
2022-11-06T10:10:16.831Z,35.91
2022-11-06T10:13:01.950Z,36.19
2022-11-06T10:15:48.033Z,36.39
2022-11-06T10:19:01.136Z,36.90
2022-11-06T10:21:41.066Z,37.68
2022-11-06T10:24:42.804Z,38.41
2022-11-06T10:27:16.037Z,37.74
2022-11-06T10:30:13.265Z,37.56
2022-11-06T10:33:22.622Z,36.20
2022-11-06T10:35:55.467Z,35.92
2022-11-06T10:38:33.797Z,35.85
2022-11-06T10:41:02.367Z,35.26
2022-11-06T10:43:34.941Z,35.31
2022-11-06T10:46:08.828Z,36.30
2022-11-06T10:48:47.028Z,36.97
2022-11-06T10:51:44.659Z,36.87
2022-11-06T10:54:43.018Z,36.20
2022-11-06T10:57:23.989Z,37.38
2022-11-06T10:59:52.647Z,37.38
2022-11-06T11:02:35.160Z,38.61
2022-11-06T11:05:10.703Z,38.61
2022-11-06T11:07:38.744Z,39.79
2022-11-06T11:10:32.602Z,39.92
2022-11-06T11:13:08.058Z,39.85
2022-11-06T11:15:46.055Z,40.44
2022-11-06T11:18:14.211Z,40.73
2022-11-06T11:20:46.020Z,39.49
2022-11-06T11:23:20.314Z,39.13
2022-11-06T11:25:57.022Z,39.19
2022-11-06T11:28:30.151Z,39.29
2022-11-06T11:31:03.870Z,38.75
2022-11-06T11:33:32.777Z,39.25
2022-11-06T11:36:02.719Z,39.67
2022-11-06T11:38:30.857Z,39.53
2022-11-06T11:41:12.480Z,39.96
2022-11-06T11:43:42.190Z,39.35
2022-11-06T11:46:09.848Z,39.21
2022-11-06T11:48:49.969Z,40.73
2022-11-06T11:51:40.807Z,39.75
2022-11-06T11:54:11.387Z,39.59
2022-11-06T11:57:04.820Z,38.86
2022-11-06T11:59:37.096Z,39.23
2022-11-06T12:02:17.150Z,37.71
2022-11-06T12:04:52.978Z,37.09
2022-11-06T12:07:25.461Z,36.85
2022-11-06T12:09:53.326Z,36.86
2022-11-06T12:12:32.378Z,35.16
2022-11-06T12:15:11.490Z,35.51
2022-11-06T12:17:41.430Z,36.42
2022-11-06T12:20:20.436Z,37.95
2022-11-06T12:22:53.258Z,37.43
2022-11-06T12:25:36.249Z,36.73
2022-11-06T12:28:12.810Z,37.00
2022-11-06T12:30:44.327Z,36.99
2022-11-06T12:33:19.781Z,37.41
2022-11-06T12:36:08.348Z,37.80
2022-11-06T12:38:48.939Z,39.69
2022-11-06T12:41:28.211Z,38.87
2022-11-06T12:43:57.069Z,39.07
2022-11-06T12:46:33.535Z,39.58
2022-11-06T12:49:01.251Z,40.03
2022-11-06T12:51:45.502Z,39.64
2022-11-06T12:54:16.066Z,39.43
2022-11-06T12:56:46.912Z,40.13
2022-11-06T12:59:42.344Z,40.63
2022-11-06T13:02:41.469Z,40.79
2022-11-06T13:05:15.317Z,41.76
2022-11-06T13:08:17.276Z,41.90
2022-11-06T13:11:12.580Z,41.53
2022-11-06T13:13:58.793Z,41.64
2022-11-06T13:16:39.761Z,40.74
2022-11-06T13:19:56.279Z,40.43
2022-11-06T13:22:38.911Z,41.21
2022-11-06T13:25:22.807Z,40.48
2022-11-06T13:27:56.540Z,39.41
2022-11-06T13:30:24.920Z,39.83
2022-11-06T13:33:10.865Z,41.31
2022-11-06T13:35:41.851Z,40.44
2022-11-06T13:38:17.354Z,41.29
2022-11-06T13:40:48.566Z,40.09
2022-11-06T13:43:22.564Z,39.69
2022-11-06T13:46:31.241Z,39.55
2022-11-06T13:49:04.847Z,38.89
2022-11-06T13:51:46.993Z,39.45
2022-11-06T13:54:17.704Z,38.97
2022-11-06T13:57:13.642Z,38.61
2022-11-06T13:59:58.469Z,38.03
2022-11-06T14:02:47.783Z,38.08
2022-11-06T14:05:24.246Z,38.07
2022-11-06T14:07:53.962Z,37.64
2022-11-06T14:10:34.541Z,37.81
2022-11-06T14:13:07.328Z,36.89
2022-11-06T14:15:42.127Z,36.11
2022-11-06T14:18:21.377Z,37.15
2022-11-06T14:20:49.105Z,36.59
2022-11-06T14:23:28.925Z,36.30
2022-11-06T14:26:12.320Z,35.94
2022-11-06T14:28:44.125Z,36.70
2022-11-06T14:31:54.722Z,36.55
2022-11-06T14:34:33.825Z,35.88
2022-11-06T14:37:20.158Z,35.89
2022-11-06T14:39:54.186Z,36.57
2022-11-06T14:42:27.316Z,36.32
2022-11-06T14:45:00.976Z,36.98
2022-11-06T14:47:39.939Z,35.53
2022-11-06T14:50:10.068Z,36.14
2022-11-06T14:52:55.925Z,35.48
2022-11-06T14:55:33.039Z,36.28
2022-11-06T14:58:21.326Z,36.85
2022-11-06T15:01:10.316Z,36.75
2022-11-06T15:03:41.150Z,36.18
2022-11-06T15:06:35.041Z,37.01
2022-11-06T15:09:35.832Z,37.03
2022-11-06T15:12:08.260Z,36.48
2022-11-06T15:14:35.993Z,36.93
2022-11-06T15:17:17.496Z,36.94
2022-11-06T15:19:59.761Z,38.40
2022-11-06T15:22:44.779Z,37.71
2022-11-06T15:25:27.851Z,38.71
2022-11-06T15:28:04.375Z,38.52
2022-11-06T15:30:41.379Z,39.39
2022-11-06T15:33:13.147Z,40.01
2022-11-06T15:35:41.395Z,39.73
2022-11-06T15:38:22.290Z,41.11
2022-11-06T15:40:57.161Z,40.88
2022-11-06T15:43:33.383Z,41.35
2022-11-06T15:46:19.799Z,41.90
2022-11-06T15:48:47.715Z,41.42
2022-11-06T15:51:29.806Z,41.82
2022-11-06T15:53:57.499Z,41.81
2022-11-06T15:56:35.179Z,42.40
2022-11-06T15:59:09.244Z,42.61
2022-11-06T16:01:37.374Z,42.49
2022-11-06T16:04:16.176Z,42.45
2022-11-06T16:06:45.167Z,43.10
2022-11-06T16:09:19.552Z,43.60
2022-11-06T16:11:50.139Z,43.13
2022-11-06T16:14:18.733Z,43.34
2022-11-06T16:16:56.006Z,43.72
2022-11-06T16:19:31.473Z,43.47
2022-11-06T16:22:13.417Z,44.01
2022-11-06T16:24:49.528Z,44.11
2022-11-06T16:27:17.631Z,44.11
2022-11-06T16:29:52.205Z,43.84
2022-11-06T16:32:23.783Z,44.38
2022-11-06T16:34:52.885Z,44.21
2022-11-06T16:37:21.762Z,44.56
2022-11-06T16:39:53.118Z,44.51
2022-11-06T16:42:36.218Z,44.90
2022-11-06T16:45:24.236Z,44.64
2022-11-06T16:48:07.192Z,45.18
2022-11-06T16:50:48.169Z,44.72
2022-11-06T16:53:28.040Z,44.39
2022-11-06T16:56:06.521Z,44.52
2022-11-06T16:58:56.805Z,44.78
2022-11-06T17:01:26.980Z,44.31
2022-11-06T17:04:00.843Z,44.59
2022-11-06T17:06:33.097Z,44.93
2022-11-06T17:09:09.088Z,44.76
2022-11-06T17:11:38.921Z,44.59
2022-11-06T17:14:19.225Z,45.75
2022-11-06T17:16:50.070Z,45.01
2022-11-06T17:19:21.574Z,45.11
2022-11-06T17:21:50.305Z,44.54
2022-11-06T17:24:36.062Z,44.91
2022-11-06T17:27:05.604Z,45.06
2022-11-06T17:29:36.601Z,45.03
2022-11-06T17:32:05.280Z,44.44
2022-11-06T17:34:32.972Z,44.86
2022-11-06T17:37:00.798Z,44.79
2022-11-06T17:39:28.450Z,44.83
2022-11-06T17:41:57.307Z,45.13
2022-11-06T17:44:26.087Z,45.07
2022-11-06T17:46:53.773Z,44.98
2022-11-06T17:49:21.655Z,45.02
2022-11-06T17:51:52.153Z,45.04
2022-11-06T17:54:22.327Z,44.39
2022-11-06T17:56:51.516Z,44.82
2022-11-06T17:59:20.600Z,44.63
2022-11-06T18:01:50.607Z,44.99
2022-11-06T18:04:23.243Z,44.81
2022-11-06T18:06:53.127Z,44.72
2022-11-06T18:09:22.441Z,44.66
2022-11-06T18:11:51.434Z,44.56
2022-11-06T18:14:19.878Z,44.51
2022-11-06T18:16:48.855Z,44.72
2022-11-06T18:19:19.317Z,44.70
2022-11-06T18:21:48.033Z,44.30
2022-11-06T18:24:15.824Z,44.38
2022-11-06T18:26:43.565Z,44.42
2022-11-06T18:29:12.839Z,44.36
2022-11-06T18:31:41.527Z,44.85
2022-11-06T18:34:20.323Z,44.47
2022-11-06T18:36:50.666Z,44.72
2022-11-06T18:39:18.605Z,44.62
2022-11-06T18:41:46.513Z,44.61
2022-11-06T18:44:15.832Z,44.25
2022-11-06T18:46:44.922Z,44.90
2022-11-06T18:49:12.819Z,44.50
2022-11-06T18:51:40.762Z,44.55
2022-11-06T18:54:11.171Z,44.52
2022-11-06T18:56:39.151Z,44.87
2022-11-06T18:59:08.951Z,44.30
2022-11-06T19:01:36.924Z,44.69
2022-11-06T19:04:05.629Z,44.33
2022-11-06T19:06:33.431Z,44.56
2022-11-06T19:09:02.190Z,44.92
2022-11-06T19:11:30.287Z,45.02
2022-11-06T19:13:57.974Z,44.57
2022-11-06T19:16:25.644Z,44.18
2022-11-06T19:21:30.950Z,43.66
2022-11-06T19:24:03.941Z,43.23
2022-11-06T19:26:33.187Z,43.64
2022-11-06T19:29:01.801Z,43.75
2022-11-06T19:31:30.568Z,43.39
2022-11-06T19:34:00.031Z,43.18
2022-11-06T19:36:29.119Z,43.30
2022-11-06T19:38:58.724Z,43.38
2022-11-06T19:41:28.745Z,43.60
2022-11-06T19:43:56.949Z,43.46
2022-11-06T19:46:33.932Z,43.45
2022-11-06T19:49:08.277Z,44.39
2022-11-06T19:51:43.081Z,44.33
2022-11-06T19:54:13.687Z,44.42
2022-11-06T19:57:28.577Z,45.16
2022-11-06T19:59:29.554Z,44.93
2022-11-06T20:01:57.812Z,45.59
2022-11-06T20:04:25.580Z,45.05
2022-11-06T20:06:53.309Z,45.44
2022-11-06T20:09:21.087Z,45.50
2022-11-06T20:11:49.373Z,45.63
2022-11-06T20:14:21.979Z,45.31
2022-11-06T20:16:51.032Z,45.38
2022-11-06T20:19:18.798Z,45.30
2022-11-06T20:21:47.431Z,46.31
2022-11-06T20:24:15.530Z,45.81
2022-11-06T20:26:43.174Z,45.68
2022-11-06T20:29:10.924Z,45.57
2022-11-06T20:31:38.506Z,45.58
2022-11-06T20:34:06.171Z,46.15
2022-11-06T20:36:36.267Z,45.83
2022-11-06T20:39:04.416Z,45.76
2022-11-06T20:41:32.172Z,45.75
2022-11-06T20:43:59.893Z,45.84
2022-11-06T20:46:27.702Z,46.29
2022-11-06T20:48:55.466Z,45.65
2022-11-06T20:51:27.382Z,46.20
2022-11-06T20:53:55.578Z,46.17
2022-11-06T20:56:27.277Z,46.34
2022-11-06T20:58:56.246Z,46.35
2022-11-06T21:01:27.299Z,46.74
2022-11-06T21:03:57.020Z,46.42
2022-11-06T21:06:27.555Z,46.89
2022-11-06T21:08:55.802Z,46.91
2022-11-06T21:11:26.467Z,46.67
2022-11-06T21:13:55.337Z,46.87
2022-11-06T21:16:25.821Z,46.98
2022-11-06T21:18:54.250Z,47.27
2022-11-06T21:21:24.956Z,47.06
2022-11-06T21:23:53.921Z,47.16
2022-11-06T21:26:25.088Z,47.31
2022-11-06T21:28:52.976Z,47.28
2022-11-06T21:31:26.163Z,47.18
2022-11-06T21:33:56.597Z,47.53
2022-11-06T21:36:37.891Z,47.49
2022-11-06T21:39:08.834Z,47.85
2022-11-06T21:41:37.162Z,47.44
2022-11-06T21:44:06.811Z,48.22
2022-11-06T21:46:35.036Z,48.00
2022-11-06T21:49:02.786Z,47.89
2022-11-06T21:51:32.925Z,47.53
2022-11-06T21:54:19.239Z,47.66
2022-11-06T21:56:48.958Z,47.55
2022-11-06T21:59:19.962Z,47.52
2022-11-06T22:01:47.844Z,47.75
2022-11-06T22:04:16.006Z,47.92
2022-11-06T22:06:44.846Z,47.93
2022-11-06T22:09:14.023Z,47.80
2022-11-06T22:11:43.855Z,48.08
2022-11-06T22:14:16.986Z,47.78
2022-11-06T22:16:47.076Z,48.08
2022-11-06T22:19:17.789Z,48.17
2022-11-06T22:21:45.870Z,47.81
2022-11-06T22:24:14.646Z,48.05
2022-11-06T22:26:42.654Z,48.25
2022-11-06T22:29:14.500Z,48.32
2022-11-06T22:31:42.252Z,48.03
2022-11-06T22:34:11.846Z,47.82
2022-11-06T22:36:41.982Z,47.81
2022-11-06T22:39:12.003Z,48.11
2022-11-06T22:41:40.116Z,48.18
2022-11-06T22:44:08.036Z,48.18
2022-11-06T22:46:35.921Z,48.16
2022-11-06T22:49:04.854Z,48.08
2022-11-06T22:51:33.627Z,48.58
2022-11-06T22:54:03.821Z,48.45
2022-11-06T22:56:33.019Z,48.29
2022-11-06T22:59:03.276Z,48.10
2022-11-06T23:01:34.955Z,48.69
2022-11-06T23:04:09.448Z,48.52
2022-11-06T23:06:37.471Z,48.29
2022-11-06T23:09:05.219Z,48.48
2022-11-06T23:11:33.233Z,48.26
2022-11-06T23:14:07.434Z,48.61
2022-11-06T23:16:55.471Z,48.57
2022-11-06T23:19:24.098Z,48.73
2022-11-06T23:21:52.827Z,48.82
2022-11-06T23:24:20.457Z,48.50
2022-11-06T23:26:48.289Z,48.85
2022-11-06T23:29:15.938Z,49.00
2022-11-06T23:31:43.637Z,48.35
2022-11-06T23:34:11.663Z,48.97
2022-11-06T23:36:39.492Z,48.49
2022-11-06T23:39:07.260Z,48.66
2022-11-06T23:41:48.739Z,48.62
2022-11-06T23:44:34.920Z,48.86
2022-11-06T23:47:03.010Z,48.69
2022-11-06T23:49:30.931Z,48.81
2022-11-06T23:51:58.683Z,49.09
2022-11-06T23:54:26.520Z,48.97
2022-11-06T23:56:54.219Z,48.64
2022-11-06T23:59:21.973Z,49.00
